Time;durP1;ratioP1;P1;durP2;ratioP2;P2;SDS_P1;SDS_P2;PMS_P1;PMS_P2;Temp;Humidity;BMP_temperature;BMP_pressure;BME280_temperature;BME280_humidity;BME280_pressure;Samples;Min_cycle;Max_cycle;Signal;HPM_P1;HPM_P2
2023/12/21 00:02:15;;;;;;;2.30;2.10;;;;;;;10.95;51.09;98545.75;8363525;23;20202;-76
2023/12/21 00:05:36;;;;;;;2.40;2.20;;;;;;;10.91;50.94;98542.66;8363881;23;20229;-75
2023/12/21 00:08:58;;;;;;;2.13;2.03;;;;;;;10.57;51.86;98548.38;8362706;23;20199;-76
2023/12/21 00:12:19;;;;;;;2.37;2.20;;;;;;;10.73;51.72;98566.78;8362378;23;20762;-76
2023/12/21 00:15:42;;;;;;;3.20;2.00;;;;;;;10.51;52.07;98560.00;8359699;23;20304;-76
2023/12/21 00:19:04;;;;;;;2.17;2.00;;;;;;;10.24;52.61;98547.63;8359040;23;20268;-75
2023/12/21 00:22:25;;;;;;;2.10;2.00;;;;;;;10.18;53.52;98548.47;8359684;23;20432;-75
2023/12/21 00:25:46;;;;;;;2.10;1.90;;;;;;;10.53;52.78;98551.72;8360951;23;20311;-75
2023/12/21 00:29:09;;;;;;;2.30;2.10;;;;;;;10.52;53.50;98528.50;8362455;23;20268;-76
2023/12/21 00:32:32;;;;;;;2.10;2.00;;;;;;;10.97;52.14;98522.94;8362487;23;20198;-75
2023/12/21 00:35:54;;;;;;;2.60;1.80;;;;;;;11.23;51.15;98521.97;8362259;23;20271;-76
2023/12/21 00:39:15;;;;;;;3.50;2.23;;;;;;;10.85;51.93;98513.00;8360346;23;20267;-75
2023/12/21 00:42:38;;;;;;;2.97;2.13;;;;;;;10.86;52.52;98525.47;8364168;23;20748;-75
2023/12/21 00:45:59;;;;;;;2.23;2.00;;;;;;;10.26;53.78;98526.69;8363845;23;20193;-76
2023/12/21 00:49:22;;;;;;;1.90;1.80;;;;;;;10.56;53.45;98535.94;8362970;23;20235;-75
2023/12/21 00:52:44;;;;;;;2.13;1.80;;;;;;;11.19;52.06;98516.19;8362246;23;20284;-75
2023/12/21 00:56:06;;;;;;;1.80;1.70;;;;;;;10.26;54.70;98513.19;8362164;23;20234;-75
2023/12/21 00:59:27;;;;;;;2.50;1.87;;;;;;;10.87;53.86;98525.25;8361516;23;20213;-75
2023/12/21 01:02:49;;;;;;;3.40;1.90;;;;;;;11.08;52.63;98526.81;8363422;23;20280;-75
2023/12/21 01:06:11;;;;;;;1.90;1.80;;;;;;;11.13;52.75;98506.25;8363905;23;20186;-75
2023/12/21 01:09:33;;;;;;;1.70;1.70;;;;;;;10.38;54.37;98503.44;8361919;23;20634;-76
2023/12/21 01:12:55;;;;;;;3.30;1.93;;;;;;;10.24;54.69;98507.22;8362328;23;20213;-76
2023/12/21 01:16:17;;;;;;;1.80;1.70;;;;;;;10.81;53.43;98485.66;8362133;23;20265;-76
2023/12/21 01:19:38;;;;;;;1.80;1.70;;;;;;;10.95;52.82;98486.41;8363244;23;20274;-76
2023/12/21 01:23:01;;;;;;;1.90;1.80;;;;;;;10.90;53.91;98478.16;8363405;23;20295;-76
2023/12/21 01:26:23;;;;;;;2.13;1.70;;;;;;;10.80;53.61;98469.72;8363425;23;20273;-77
2023/12/21 01:29:44;;;;;;;1.80;1.70;;;;;;;10.32;54.82;98474.63;8362452;23;20209;-76
2023/12/21 01:33:06;;;;;;;2.10;1.70;;;;;;;10.57;54.26;98461.31;8362305;23;20657;-77
2023/12/21 01:36:28;;;;;;;1.70;1.60;;;;;;;10.47;54.42;98455.53;8362566;23;20274;-77
2023/12/21 01:39:51;;;;;;;1.73;1.70;;;;;;;10.60;54.86;98468.94;8362931;23;20252;-77
2023/12/21 01:43:13;;;;;;;1.63;1.53;;;;;;;10.65;53.84;98452.97;8362619;23;20208;-76
2023/12/21 01:46:35;;;;;;;1.97;1.87;;;;;;;10.82;54.33;98456.81;8363156;23;20240;-77
2023/12/21 01:49:56;;;;;;;1.80;1.70;;;;;;;11.00;53.79;98448.84;8361720;23;20263;-76
2023/12/21 01:53:18;;;;;;;1.60;1.60;;;;;;;10.66;54.11;98433.03;8361910;23;20661;-76
2023/12/21 01:56:42;;;;;;;1.77;1.67;;;;;;;10.74;54.06;98435.50;8363419;23;20639;-77
2023/12/21 02:00:04;;;;;;;2.97;1.90;;;;;;;10.97;53.21;98419.59;8363026;23;20214;-76
2023/12/21 02:03:26;;;;;;;1.50;1.50;;;;;;;10.65;54.34;98412.53;8363029;23;20241;-76
2023/12/21 02:06:47;;;;;;;1.70;1.70;;;;;;;10.49;54.48;98407.63;8361126;23;20215;-76
2023/12/21 02:10:10;;;;;;;1.90;1.80;;;;;;;10.93;53.66;98391.41;8361557;23;20266;-76
2023/12/21 02:13:33;;;;;;;2.00;1.90;;;;;;;10.45;54.54;98363.28;8362872;23;20215;-76
2023/12/21 02:16:57;;;;;;;1.80;1.70;;;;;;;10.85;53.75;98373.63;8363028;23;20265;-76
2023/12/21 02:20:19;;;;;;;1.77;1.73;;;;;;;10.87;53.76;98386.91;8362915;23;20615;-78
2023/12/21 02:23:42;;;;;;;1.80;1.70;;;;;;;10.24;55.33;98395.91;8362652;23;20555;-76
2023/12/21 02:27:05;;;;;;;1.63;1.57;;;;;;;10.49;54.63;98381.50;8361727;23;20554;-76
2023/12/21 02:30:27;;;;;;;1.80;1.70;;;;;;;10.66;54.06;98371.88;8361419;23;20586;-78
2023/12/21 02:33:48;;;;;;;1.90;1.80;;;;;;;11.11;53.13;98362.63;8362504;23;20323;-77
2023/12/21 02:37:10;;;;;;;2.33;1.80;;;;;;;10.97;53.60;98362.94;8362550;23;20269;-78
2023/12/21 02:40:31;;;;;;;1.63;1.63;;;;;;;10.66;54.31;98342.22;8360671;23;20227;-78
2023/12/21 02:43:54;;;;;;;1.57;1.57;;;;;;;10.61;55.91;98349.28;8362266;23;20229;-80
2023/12/21 02:47:16;;;;;;;1.63;1.63;;;;;;;9.93;56.35;98339.22;8362271;23;20597;-77
2023/12/21 02:50:37;;;;;;;1.50;1.50;;;;;;;10.65;55.12;98337.03;8361517;23;20329;-78
2023/12/21 02:53:59;;;;;;;1.60;1.60;;;;;;;10.76;54.26;98334.50;8362281;23;20335;-76
2023/12/21 02:57:20;;;;;;;1.60;1.60;;;;;;;10.43;55.68;98323.06;8362458;23;20267;-77
2023/12/21 03:00:43;;;;;;;1.60;1.60;;;;;;;10.90;54.34;98302.84;8361382;23;20306;-78
2023/12/21 03:04:04;;;;;;;1.60;1.60;;;;;;;10.71;54.60;98307.34;8360824;23;20622;-78
2023/12/21 03:07:26;;;;;;;1.63;1.53;;;;;;;10.55;54.66;98274.69;8361357;23;20217;-79
2023/12/21 03:10:47;;;;;;;1.30;1.30;;;;;;;10.92;54.00;98271.91;8361809;23;20221;-76
2023/12/21 03:14:09;;;;;;;1.53;1.50;;;;;;;10.70;54.83;98276.03;8362541;23;20295;-77
2023/12/21 03:17:32;;;;;;;1.80;1.80;;;;;;;10.89;54.21;98263.44;8363971;23;20222;-77
2023/12/21 03:20:53;;;;;;;1.50;1.50;;;;;;;11.05;54.05;98263.69;8362889;23;20212;-77
2023/12/21 03:24:15;;;;;;;1.70;1.60;;;;;;;11.43;52.67;98247.34;8361682;23;20263;-76
2023/12/21 03:27:36;;;;;;;1.60;1.50;;;;;;;10.57;55.15;98257.25;8363478;23;20641;-76
2023/12/21 03:30:58;;;;;;;1.50;1.50;;;;;;;10.91;54.67;98247.84;8363255;23;20206;-75
2023/12/21 03:34:21;;;;;;;1.50;1.50;;;;;;;11.01;54.05;98246.31;8363575;23;20300;-75
2023/12/21 03:37:42;;;;;;;1.50;1.50;;;;;;;10.85;54.47;98244.19;8363326;23;20320;-76
2023/12/21 03:41:04;;;;;;;1.57;1.50;;;;;;;10.99;54.43;98244.91;8360019;23;20295;-75
2023/12/21 03:44:25;;;;;;;1.50;1.50;;;;;;;10.92;54.56;98230.66;8362489;23;20637;-75
2023/12/21 03:47:47;;;;;;;2.03;1.57;;;;;;;10.96;55.16;98212.97;8364235;23;20213;-79
2023/12/21 03:51:10;;;;;;;1.50;1.50;;;;;;;11.35;54.02;98242.25;8363344;23;20604;-77
2023/12/21 03:54:32;;;;;;;1.80;1.70;;;;;;;11.22;54.17;98240.50;8363292;23;20808;-76
2023/12/21 03:57:53;;;;;;;1.50;1.50;;;;;;;11.38;53.67;98236.41;8362921;23;20271;-76
2023/12/21 04:01:23;;;;;;;1.40;1.40;;;;;;;11.37;53.90;98238.28;8361290;23;20652;-75
2023/12/21 04:04:45;;;;;;;1.60;1.60;;;;;;;10.74;55.02;98226.00;8363015;23;20698;-76
2023/12/21 04:08:08;;;;;;;1.40;1.40;;;;;;;10.34;56.22;98203.09;8362226;23;20193;-76
2023/12/21 04:11:30;;;;;;;1.50;1.50;;;;;;;10.91;55.31;98221.72;8362776;23;20254;-77
2023/12/21 04:14:51;;;;;;;1.60;1.60;;;;;;;10.92;54.82;98219.88;8365992;23;20204;-78
2023/12/21 04:18:13;;;;;;;1.37;1.37;;;;;;;11.27;54.28;98194.78;8367709;23;20190;-78
2023/12/21 04:21:35;;;;;;;1.30;1.30;;;;;;;10.92;55.49;98198.28;8368604;23;20205;-78
2023/12/21 04:24:58;;;;;;;1.30;1.30;;;;;;;10.85;55.96;98205.59;8371277;23;20201;-78
2023/12/21 04:28:19;;;;;;;1.40;1.40;;;;;;;10.81;55.61;98190.91;8369228;23;20446;-77
2023/12/21 04:31:44;;;;;;;1.50;1.50;;;;;;;10.71;56.14;98166.31;8369378;23;20208;-80
2023/12/21 04:35:09;;;;;;;1.50;1.50;;;;;;;10.90;55.94;98173.38;8364471;23;20206;-78
2023/12/21 04:38:30;;;;;;;1.20;1.20;;;;;;;11.05;55.01;98185.47;8367165;23;20233;-77
2023/12/21 04:41:53;;;;;;;1.40;1.40;;;;;;;11.46;54.81;98176.75;8367890;23;20237;-80
2023/12/21 04:45:14;;;;;;;1.43;1.43;;;;;;;10.90;56.18;98176.94;8366861;23;20264;-79
2023/12/21 04:48:37;;;;;;;1.33;1.33;;;;;;;10.93;56.45;98165.69;8368654;23;20268;-80
2023/12/21 04:51:58;;;;;;;1.30;1.30;;;;;;;11.50;55.28;98156.31;8368009;23;20299;-82
2023/12/21 04:55:19;;;;;;;2.00;1.40;;;;;;;11.27;55.59;98186.69;8373509;23;20286;-79
2023/12/21 04:58:42;;;;;;;1.40;1.40;;;;;;;10.63;57.39;98172.00;8371163;23;20557;-78
2023/12/21 05:02:04;;;;;;;1.50;1.50;;;;;;;11.05;56.77;98146.91;8372145;23;20204;-79
2023/12/21 05:05:26;;;;;;;1.30;1.30;;;;;;;10.93;56.80;98121.72;8372905;23;20213;-79
2023/12/21 05:08:47;;;;;;;1.50;1.50;;;;;;;10.62;57.79;98124.53;8367859;23;20228;-76
2023/12/21 05:12:09;;;;;;;1.47;1.47;;;;;;;11.04;56.91;98118.28;8361619;23;20284;-77
2023/12/21 05:15:32;;;;;;;1.40;1.40;;;;;;;10.66;58.39;98142.72;8362195;23;20233;-78
2023/12/21 05:18:54;;;;;;;1.40;1.40;;;;;;;11.03;56.80;98139.03;8361576;23;20188;-76
2023/12/21 05:22:15;;;;;;;1.40;1.40;;;;;;;11.08;57.03;98141.03;8363365;23;20789;-76
2023/12/21 05:25:37;;;;;;;1.40;1.40;;;;;;;11.12;56.67;98140.41;8363769;23;20212;-76
2023/12/21 05:28:58;;;;;;;1.50;1.50;;;;;;;11.21;56.48;98144.44;8361984;23;20312;-76
2023/12/21 05:32:21;;;;;;;1.30;1.30;;;;;;;11.38;55.82;98137.38;8362733;23;20484;-78
2023/12/21 05:35:43;;;;;;;1.60;1.60;;;;;;;10.87;57.60;98117.22;8364912;23;20340;-76
2023/12/21 05:39:04;;;;;;;1.30;1.30;;;;;;;11.17;57.02;98100.06;8360907;23;20184;-76
2023/12/21 05:42:26;;;;;;;1.50;1.40;;;;;;;10.98;57.33;98081.44;8363119;23;20528;-77
2023/12/21 05:45:47;;;;;;;1.40;1.40;;;;;;;11.18;56.68;98101.72;8363461;23;20185;-78
2023/12/21 05:49:10;;;;;;;1.20;1.20;;;;;;;11.69;55.48;98074.28;8362714;23;20193;-76
2023/12/21 05:52:32;;;;;;;1.33;1.33;;;;;;;11.11;56.70;98094.75;8362642;23;20633;-78
2023/12/21 05:55:53;;;;;;;1.37;1.37;;;;;;;10.91;56.99;98103.06;8362304;23;20245;-75
2023/12/21 05:59:15;;;;;;;1.40;1.30;;;;;;;10.80;57.41;98087.63;8360353;23;20634;-76
2023/12/21 06:02:37;;;;;;;1.30;1.30;;;;;;;10.57;58.43;98084.75;8363082;23;20202;-76
2023/12/21 06:05:59;;;;;;;1.33;1.33;;;;;;;11.23;56.77;98069.47;8363292;23;20267;-77
2023/12/21 06:09:21;;;;;;;1.60;1.50;;;;;;;11.23;56.29;98052.47;8362374;23;20244;-76
2023/12/21 06:12:43;;;;;;;1.43;1.43;;;;;;;11.05;56.97;98060.59;8362463;23;20295;-76
2023/12/21 06:16:11;;;;;;;1.43;1.43;;;;;;;10.92;57.89;98060.75;8361879;23;20228;-76
2023/12/21 06:19:32;;;;;;;1.30;1.30;;;;;;;11.19;56.88;98054.81;8361772;23;20173;-77
2023/12/21 06:22:55;;;;;;;1.43;1.43;;;;;;;10.45;58.48;98056.06;8360490;23;20204;-76
2023/12/21 06:26:17;;;;;;;1.60;1.50;;;;;;;10.60;58.75;98025.03;8362724;23;20264;-76
2023/12/21 06:29:38;;;;;;;1.60;1.60;;;;;;;10.94;57.95;98020.88;8358175;23;20280;-76
2023/12/21 06:33:00;;;;;;;1.50;1.50;;;;;;;11.00;58.04;98004.63;8360004;23;20229;-79
2023/12/21 06:36:21;;;;;;;1.40;1.40;;;;;;;10.70;59.06;98008.31;8359599;23;20592;-76
2023/12/21 06:39:44;;;;;;;1.60;1.50;;;;;;;11.24;57.27;97990.19;8363181;23;20273;-79
2023/12/21 06:43:05;;;;;;;1.40;1.40;;;;;;;10.82;58.76;97979.56;8370807;23;20229;-80
2023/12/21 06:46:27;;;;;;;1.40;1.40;;;;;;;11.01;58.31;97991.94;8368987;23;20208;-82
2023/12/21 06:49:48;;;;;;;1.40;1.40;;;;;;;10.73;59.14;97981.72;8370558;23;20188;-81
2023/12/21 06:53:15;;;;;;;1.60;1.60;;;;;;;11.06;58.84;97997.50;8370091;23;20233;-79
2023/12/21 06:56:38;;;;;;;1.47;1.47;;;;;;;10.35;60.81;97958.75;8369009;23;20190;-77
2023/12/21 07:00:00;;;;;;;1.40;1.40;;;;;;;10.87;59.70;97995.88;8364511;23;20204;-78
2023/12/21 07:03:22;;;;;;;1.50;1.50;;;;;;;10.52;60.37;97982.16;8364782;23;20336;-78
2023/12/21 07:06:44;;;;;;;1.40;1.40;;;;;;;10.90;59.42;97990.84;8364294;23;20180;-77
2023/12/21 07:10:07;;;;;;;1.60;1.50;;;;;;;10.82;59.36;97977.69;8356557;23;21099;-76
2023/12/21 07:13:30;;;;;;;1.57;1.47;;;;;;;11.05;58.95;97972.38;8357327;23;20205;-77
2023/12/21 07:16:52;;;;;;;1.70;1.70;;;;;;;11.20;58.51;97993.56;8363635;23;20662;-79
2023/12/21 07:20:13;;;;;;;1.50;1.50;;;;;;;10.96;58.78;97967.53;8363682;23;20266;-76
2023/12/21 07:23:35;;;;;;;1.50;1.50;;;;;;;10.99;59.01;97967.09;8365359;23;20290;-78
2023/12/21 07:26:56;;;;;;;1.63;1.63;;;;;;;11.26;57.88;97979.97;8362165;23;20231;-77
2023/12/21 07:30:19;;;;;;;1.83;1.73;;;;;;;10.81;59.63;97950.94;8362277;23;20208;-77
2023/12/21 07:33:41;;;;;;;1.50;1.50;;;;;;;10.41;60.82;97969.47;8362857;23;20244;-78
2023/12/21 07:37:02;;;;;;;1.40;1.40;;;;;;;10.71;59.73;97964.13;8364238;23;20293;-78
2023/12/21 07:40:24;;;;;;;1.67;1.40;;;;;;;10.97;59.34;97961.09;8364912;23;20200;-79
2023/12/21 07:43:45;;;;;;;1.50;1.50;;;;;;;11.33;57.97;97951.03;8363504;23;20541;-77
2023/12/21 07:47:08;;;;;;;1.40;1.40;;;;;;;11.61;57.24;97951.25;8366889;23;20209;-79
2023/12/21 07:50:30;;;;;;;1.30;1.30;;;;;;;11.17;58.67;97942.78;8369362;23;20188;-79
2023/12/21 07:53:52;;;;;;;2.73;2.20;;;;;;;11.79;57.26;97928.72;8369479;23;20748;-80
2023/12/21 07:57:14;;;;;;;1.40;1.40;;;;;;;11.52;57.53;97946.38;8371138;23;20202;-78
2023/12/21 08:00:36;;;;;;;1.60;1.50;;;;;;;11.36;58.42;97937.09;8369188;23;20661;-79
2023/12/21 08:03:59;;;;;;;1.40;1.40;;;;;;;11.17;58.64;97935.47;8370219;23;20625;-78
2023/12/21 08:07:21;;;;;;;1.40;1.40;;;;;;;10.92;59.75;97939.41;8369215;23;20186;-80
2023/12/21 08:10:42;;;;;;;1.40;1.40;;;;;;;11.67;56.99;97907.13;8366824;23;20209;-79
2023/12/21 08:14:04;;;;;;;1.43;1.43;;;;;;;11.27;58.32;97929.56;8369601;23;20193;-78
2023/12/21 08:17:25;;;;;;;1.30;1.30;;;;;;;11.99;57.22;97921.09;8369079;23;20212;-78
2023/12/21 08:20:48;;;;;;;1.30;1.30;;;;;;;11.01;58.97;97917.28;8366202;23;20190;-78
2023/12/21 08:24:10;;;;;;;1.60;1.50;;;;;;;11.60;58.22;97921.78;8365865;23;20587;-78
2023/12/21 08:27:31;;;;;;;1.40;1.30;;;;;;;11.64;57.76;97907.56;8365244;23;20195;-79
2023/12/21 08:30:53;;;;;;;1.63;1.50;;;;;;;11.91;57.25;97910.63;8365576;23;20593;-78
2023/12/21 08:34:14;;;;;;;1.30;1.30;;;;;;;11.62;58.13;97890.00;8367767;23;20182;-79
2023/12/21 08:37:37;;;;;;;1.40;1.30;;;;;;;11.94;57.15;97899.38;8367500;23;20240;-78
2023/12/21 08:41:02;;;;;;;1.30;1.30;;;;;;;11.78;57.41;97900.06;8366417;23;20221;-79
2023/12/21 08:44:23;;;;;;;1.27;1.27;;;;;;;11.76;57.86;97894.09;8366900;23;20192;-79
2023/12/21 08:47:45;;;;;;;1.60;1.53;;;;;;;11.95;56.98;97879.41;8369003;23;20186;-79
2023/12/21 08:51:06;;;;;;;1.33;1.27;;;;;;;11.92;57.33;97891.50;8367284;23;20685;-78
2023/12/21 08:54:29;;;;;;;1.50;1.50;;;;;;;11.64;58.11;97895.97;8368450;23;20186;-79
2023/12/21 08:57:51;;;;;;;1.30;1.30;;;;;;;11.69;57.75;97891.50;8368762;23;20237;-79
2023/12/21 09:01:13;;;;;;;1.30;1.30;;;;;;;11.95;57.00;97893.75;8385726;23;20198;-79
2023/12/21 09:04:35;;;;;;;1.47;1.43;;;;;;;12.38;56.11;97869.81;8373773;23;20261;-81
2023/12/21 09:07:56;;;;;;;1.50;1.50;;;;;;;12.34;56.29;97871.34;8371079;23;20182;-80
2023/12/21 09:11:19;;;;;;;1.50;1.40;;;;;;;11.86;57.48;97862.72;8371572;23;20213;-79
2023/12/21 09:14:41;;;;;;;1.30;1.20;;;;;;;12.02;57.32;97856.63;8366228;23;20221;-76
2023/12/21 09:18:03;;;;;;;1.07;1.07;;;;;;;12.04;57.24;97865.28;8367865;23;20702;-81
2023/12/21 09:21:24;;;;;;;1.30;1.23;;;;;;;11.83;57.46;97838.91;8362539;23;20213;-83
2023/12/21 09:24:46;;;;;;;1.53;1.30;;;;;;;12.33;56.63;97820.25;8368380;23;20522;-80
2023/12/21 09:28:08;;;;;;;1.20;1.20;;;;;;;12.06;57.05;97827.25;8366197;23;20635;-79
2023/12/21 09:31:30;;;;;;;1.43;1.33;;;;;;;12.28;57.20;97804.72;8363310;23;20812;-78
2023/12/21 09:34:52;;;;;;;1.40;1.30;;;;;;;12.20;57.29;97791.59;8365872;23;20268;-81
2023/12/21 09:38:13;;;;;;;1.50;1.40;;;;;;;12.82;55.94;97800.63;8368080;23;20189;-80
2023/12/21 09:41:35;;;;;;;1.50;1.40;;;;;;;12.58;56.04;97813.44;8365379;23;20599;-79
2023/12/21 09:44:57;;;;;;;1.60;1.53;;;;;;;12.63;56.13;97800.00;8364109;23;20220;-79
2023/12/21 09:48:20;;;;;;;1.50;1.40;;;;;;;12.60;55.94;97799.69;8365456;23;20221;-79
2023/12/21 09:51:42;;;;;;;1.30;1.30;;;;;;;12.99;54.62;97767.16;8366188;23;20210;-81
2023/12/21 09:55:06;;;;;;;1.80;1.70;;;;;;;12.49;55.93;97743.78;8366957;23;20186;-77
2023/12/21 09:58:28;;;;;;;1.70;1.60;;;;;;;12.63;55.47;97750.53;8363676;23;20189;-82
2023/12/21 10:01:51;;;;;;;1.80;1.60;;;;;;;12.48;55.73;97709.69;8362262;23;20206;-78
2023/12/21 10:05:12;;;;;;;1.40;1.40;;;;;;;12.97;55.35;97725.16;8365368;23;20188;-79
2023/12/21 10:08:34;;;;;;;1.00;1.00;;;;;;;12.41;56.20;97755.00;8366843;23;20226;-81
2023/12/21 10:11:55;;;;;;;1.40;1.40;;;;;;;12.54;56.69;97749.28;8368376;23;20229;-80
2023/12/21 10:15:18;;;;;;;1.70;1.60;;;;;;;12.61;56.67;97739.13;8371787;23;20348;-80
2023/12/21 10:18:41;;;;;;;1.60;1.50;;;;;;;12.70;56.16;97706.03;8369574;23;20186;-79
2023/12/21 10:22:03;;;;;;;1.50;1.40;;;;;;;12.91;55.18;97705.31;8370572;23;20268;-80
2023/12/21 10:25:26;;;;;;;1.43;1.33;;;;;;;13.01;55.14;97691.97;8366539;23;20698;-81
2023/12/21 10:28:48;;;;;;;1.67;1.57;;;;;;;12.93;55.81;97673.41;8367149;23;20189;-79
2023/12/21 10:32:10;;;;;;;1.20;1.20;;;;;;;13.30;54.69;97676.44;8369813;23;20205;-79
2023/12/21 10:35:33;;;;;;;1.60;1.50;;;;;;;12.95;56.11;97654.22;8366907;23;20261;-79
2023/12/21 10:38:55;;;;;;;1.87;1.30;;;;;;;13.11;55.96;97650.72;8367439;23;20272;-80
2023/12/21 10:42:17;;;;;;;1.30;1.30;;;;;;;12.69;56.67;97630.56;8363250;23;20655;-79
2023/12/21 10:45:38;;;;;;;1.27;1.27;;;;;;;12.56;56.82;97620.91;8365158;23;20186;-79
2023/12/21 10:49:01;;;;;;;2.03;1.40;;;;;;;12.50;56.31;97589.44;8366698;23;20208;-79
2023/12/21 10:52:25;;;;;;;1.23;1.23;;;;;;;12.37;57.58;97584.38;8367316;23;20224;-82
2023/12/21 10:55:48;;;;;;;1.10;1.10;;;;;;;12.81;56.90;97582.63;8371624;23;20201;-81
2023/12/21 10:59:12;;;;;;;1.10;1.10;;;;;;;12.74;57.34;97587.38;8369081;23;20220;-79
2023/12/21 11:02:33;;;;;;;1.47;1.40;;;;;;;12.24;59.33;97565.78;8368795;23;20260;-79
2023/12/21 11:05:56;;;;;;;1.80;1.70;;;;;;;12.88;57.30;97575.13;8371391;23;20182;-81
2023/12/21 11:09:20;;;;;;;5.63;1.20;;;;;;;12.89;56.96;97560.53;8372578;23;20181;-80
2023/12/21 11:12:41;;;;;;;1.30;1.30;;;;;;;12.63;57.25;97551.25;8373184;23;20303;-79
2023/12/21 11:16:03;;;;;;;1.30;1.23;;;;;;;12.04;58.47;97516.00;8374208;23;20674;-79
2023/12/21 11:19:28;;;;;;;2.73;1.67;;;;;;;12.36;58.40;97523.28;8371145;23;20209;-79
2023/12/21 11:22:51;;;;;;;2.63;1.70;;;;;;;12.20;59.05;97523.28;8366683;23;20232;-78
2023/12/21 11:26:20;;;;;;;1.43;1.43;;;;;;;12.39;58.47;97528.19;8363014;23;20178;-79
2023/12/21 11:29:44;;;;;;;1.60;1.50;;;;;;;12.87;56.76;97490.47;8361808;23;20174;-79
2023/12/21 11:33:06;;;;;;;1.40;1.30;;;;;;;12.31;58.46;97506.16;8362493;23;20202;-79
2023/12/21 11:36:28;;;;;;;1.40;1.40;;;;;;;12.51;58.01;97495.66;8362426;23;20202;-78
2023/12/21 11:39:51;;;;;;;1.20;1.20;;;;;;;12.86;56.88;97486.13;8361799;23;20268;-78
2023/12/21 11:43:20;;;;;;;1.27;1.27;;;;;;;12.75;57.30;97481.66;8363560;23;20327;-78
2023/12/21 11:46:42;;;;;;;1.23;1.23;;;;;;;12.81;57.35;97488.75;8361717;23;20611;-78
2023/12/21 11:50:05;;;;;;;1.60;1.50;;;;;;;12.96;56.81;97451.13;8361072;23;20268;-78
2023/12/21 11:53:28;;;;;;;1.33;1.33;;;;;;;13.05;56.58;97460.41;8362262;23;20210;-79
2023/12/21 11:56:51;;;;;;;1.20;1.20;;;;;;;12.26;58.53;97433.94;8363052;23;20208;-78
2023/12/21 12:00:16;;;;;;;1.67;1.30;;;;;;;12.33;58.69;97426.47;8362731;23;20181;-78
2023/12/21 12:03:38;;;;;;;1.20;1.20;;;;;;;12.60;58.21;97421.97;8361345;23;20206;-78
2023/12/21 12:06:59;;;;;;;1.20;1.20;;;;;;;12.53;57.88;97405.13;8362290;23;20627;-78
2023/12/21 12:10:22;;;;;;;1.70;1.20;;;;;;;12.44;58.78;97393.13;8363813;23;20213;-78
2023/12/21 12:13:43;;;;;;;1.50;1.40;;;;;;;12.75;58.07;97357.25;8363030;23;20217;-78
2023/12/21 12:17:07;;;;;;;1.40;1.30;;;;;;;12.92;57.59;97366.09;8363923;23;20243;-78
2023/12/21 12:20:29;;;;;;;1.27;1.27;;;;;;;12.27;59.19;97342.91;8363224;23;20320;-78
2023/12/21 12:23:51;;;;;;;1.27;1.20;;;;;;;12.56;58.39;97307.28;8363353;23;20666;-78
2023/12/21 12:27:12;;;;;;;1.43;1.43;;;;;;;12.79;58.41;97336.75;8362589;23;20244;-78
2023/12/21 12:30:35;;;;;;;2.00;1.30;;;;;;;12.84;57.93;97323.28;8362395;23;20264;-77
2023/12/21 12:33:58;;;;;;;1.20;1.20;;;;;;;12.83;58.17;97320.84;8362759;23;20185;-81
2023/12/21 12:37:19;;;;;;;1.30;1.30;;;;;;;12.67;58.68;97325.25;8362229;23;20707;-80
2023/12/21 12:40:41;;;;;;;1.23;1.23;;;;;;;12.74;58.71;97311.56;8359285;23;20193;-80
2023/12/21 12:44:02;;;;;;;1.13;1.13;;;;;;;12.84;57.79;97323.28;8360329;23;20255;-78
2023/12/21 12:47:24;;;;;;;1.50;1.40;;;;;;;12.97;58.65;97313.97;8362973;23;20341;-79
2023/12/21 12:50:47;;;;;;;6.80;1.60;;;;;;;12.94;57.75;97284.69;8365230;23;20700;-78
2023/12/21 12:54:08;;;;;;;1.43;1.43;;;;;;;13.13;57.89;97303.03;8364012;23;20709;-79
2023/12/21 12:57:30;;;;;;;1.20;1.20;;;;;;;12.74;58.14;97300.75;8364481;23;20268;-78
2023/12/21 13:00:51;;;;;;;1.43;1.33;;;;;;;12.20;58.91;97244.97;8364180;23;20189;-78
2023/12/21 13:04:13;;;;;;;1.63;1.40;;;;;;;12.62;59.12;97295.47;8363665;23;20260;-79
2023/12/21 13:07:36;;;;;;;1.10;1.10;;;;;;;13.02;57.79;97301.31;8364216;23;20260;-79
2023/12/21 13:10:57;;;;;;;1.37;1.33;;;;;;;12.89;57.65;97299.00;8363717;23;20229;-78
2023/12/21 13:14:19;;;;;;;1.60;1.50;;;;;;;12.30;59.18;97327.00;8364194;23;20267;-79
2023/12/21 13:17:40;;;;;;;3.30;2.40;;;;;;;12.96;57.88;97329.38;8364125;23;20201;-79
2023/12/21 13:21:02;;;;;;;2.43;1.50;;;;;;;13.29;56.93;97321.00;8363151;23;20209;-79
2023/12/21 13:24:25;;;;;;;2.93;2.40;;;;;;;12.76;59.09;97307.50;8364251;23;20201;-78
2023/12/21 13:27:47;;;;;;;3.47;1.83;;;;;;;12.81;59.58;97306.75;8362144;23;20256;-79
2023/12/21 13:31:08;;;;;;;1.47;1.47;;;;;;;12.60;59.81;97321.94;8364265;23;20202;-79
2023/12/21 13:34:30;;;;;;;1.40;1.40;;;;;;;12.56;60.38;97295.69;8365074;23;20639;-79
2023/12/21 13:37:52;;;;;;;1.30;1.30;;;;;;;12.98;58.82;97302.88;8364899;23;20205;-79
2023/12/21 13:41:15;;;;;;;1.20;1.20;;;;;;;12.50;60.42;97269.63;8362381;23;20295;-78
2023/12/21 13:44:36;;;;;;;1.37;1.37;;;;;;;12.87;59.49;97284.09;8362697;23;20185;-78
2023/12/21 13:47:58;;;;;;;1.50;1.47;;;;;;;12.55;60.13;97262.41;8363100;23;20182;-80
2023/12/21 13:51:19;;;;;;;1.80;1.70;;;;;;;12.88;59.30;97281.16;8362964;23;20302;-78
2023/12/21 13:54:41;;;;;;;1.70;1.60;;;;;;;13.04;59.26;97277.50;8363285;23;20244;-78
2023/12/21 13:58:05;;;;;;;1.20;1.20;;;;;;;12.55;60.22;97250.78;8368886;23;20678;-82
2023/12/21 14:01:26;;;;;;;1.40;1.30;;;;;;;13.01;59.27;97269.09;8387907;23;20217;-81
2023/12/21 14:04:48;;;;;;;1.70;1.20;;;;;;;12.66;59.90;97260.63;8373760;23;20228;-82
2023/12/21 14:08:09;;;;;;;1.30;1.30;;;;;;;12.94;58.96;97274.72;8385454;23;20182;-80
2023/12/21 14:11:31;;;;;;;1.70;1.60;;;;;;;13.05;58.87;97271.03;8370256;23;20260;-80
2023/12/21 14:14:54;;;;;;;1.40;1.40;;;;;;;12.97;59.11;97276.09;8368168;23;20188;-79
2023/12/21 14:18:16;;;;;;;1.70;1.60;;;;;;;13.21;58.25;97274.69;8366239;23;20205;-78
2023/12/21 14:21:37;;;;;;;1.60;1.50;;;;;;;12.79;59.26;97257.50;8367279;23;20201;-80
2023/12/21 14:24:59;;;;;;;1.20;1.20;;;;;;;12.95;59.05;97273.66;8368137;23;20586;-79
2023/12/21 14:28:22;;;;;;;1.73;1.40;;;;;;;12.96;58.72;97275.28;8371330;23;20556;-80
2023/12/21 14:31:45;;;;;;;1.20;1.20;;;;;;;12.87;59.51;97267.88;8363537;23;20292;-77
2023/12/21 14:35:07;;;;;;;2.00;1.20;;;;;;;12.62;59.89;97254.13;8362255;23;20193;-77
2023/12/21 14:38:29;;;;;;;1.20;1.20;;;;;;;12.94;59.29;97249.53;8363932;23;20248;-79
2023/12/21 14:41:51;;;;;;;1.40;1.30;;;;;;;13.14;58.95;97260.53;8363310;23;20242;-78
2023/12/21 14:45:12;;;;;;;2.47;2.27;;;;;;;13.00;59.19;97251.25;8361541;23;20192;-77
2023/12/21 14:48:36;;;;;;;1.20;1.20;;;;;;;13.21;58.33;97240.31;8362788;23;20181;-77
2023/12/21 14:51:59;;;;;;;1.27;1.27;;;;;;;12.94;59.00;97233.31;8362317;23;20275;-77
2023/12/21 14:55:21;;;;;;;1.87;1.77;;;;;;;13.18;58.58;97253.53;8362653;23;20189;-79
2023/12/21 14:58:42;;;;;;;1.30;1.30;;;;;;;13.15;58.50;97244.06;8362889;23;20670;-79
2023/12/21 15:02:04;;;;;;;1.30;1.30;;;;;;;13.16;58.36;97244.88;8362873;23;20209;-79
2023/12/21 15:05:27;;;;;;;1.77;1.67;;;;;;;12.63;60.31;97248.44;8363533;23;20193;-80
2023/12/21 15:08:48;;;;;;;4.63;4.23;;;;;;;13.13;59.30;97246.22;8368311;23;20682;-80
2023/12/21 15:12:10;;;;;;;2.60;2.40;;;;;;;12.66;60.36;97229.00;8372712;23;20206;-79
2023/12/21 15:15:31;;;;;;;1.13;1.13;;;;;;;12.57;60.37;97225.13;8368844;23;20186;-80
2023/12/21 15:18:53;;;;;;;1.50;1.50;;;;;;;12.78;60.12;97224.25;8368512;23;20291;-79
2023/12/21 15:22:16;;;;;;;1.57;1.47;;;;;;;12.75;60.00;97192.28;8366688;23;20213;-79
2023/12/21 15:25:37;;;;;;;1.10;1.10;;;;;;;12.91;59.79;97195.94;8371664;23;20185;-83
2023/12/21 15:29:01;;;;;;;1.20;1.20;;;;;;;13.01;59.57;97217.69;8369909;23;20276;-80
2023/12/21 15:32:22;;;;;;;1.60;1.50;;;;;;;13.38;58.50;97205.78;8364800;23;20265;-79
2023/12/21 15:35:44;;;;;;;1.27;1.27;;;;;;;13.02;58.95;97201.22;8366123;23;20236;-80
2023/12/21 15:39:07;;;;;;;1.23;1.23;;;;;;;12.88;58.93;97155.91;8368068;23;20228;-79
2023/12/21 15:42:28;;;;;;;1.40;1.40;;;;;;;13.40;58.39;97175.75;8368244;23;20526;-80
2023/12/21 15:45:50;;;;;;;1.50;1.40;;;;;;;13.00;59.17;97199.84;8369413;23;20267;-81
2023/12/21 15:49:11;;;;;;;1.30;1.30;;;;;;;13.29;58.82;97180.28;8369846;23;20240;-81
2023/12/21 15:52:33;;;;;;;1.13;1.13;;;;;;;13.30;58.93;97190.06;8369139;23;20308;-79